sensor_id;sensor_type;location;lat;lon;timestamp;P1;durP1;ratioP1;P2;durP2;ratioP2
22673;SDS011;11504;43.334;21.918;2022-10-28T00:02:26;18.0;;;17.0;;
22673;SDS011;11504;43.334;21.918;2022-10-28T00:07:03;18.0;;;17.0;;
22673;SDS011;11504;43.334;21.918;2022-10-28T00:11:40;17.0;;;16.0;;
22673;SDS011;11504;43.334;21.918;2022-10-28T00:16:19;17.0;;;16.0;;
22673;SDS011;11504;43.334;21.918;2022-10-28T00:21:09;15.0;;;14.0;;
22673;SDS011;11504;43.334;21.918;2022-10-28T00:26:04;15.0;;;14.0;;
22673;SDS011;11504;43.334;21.918;2022-10-28T00:30:47;13.0;;;13.0;;
22673;SDS011;11504;43.334;21.918;2022-10-28T00:35:24;13.0;;;13.0;;
22673;SDS011;11504;43.334;21.918;2022-10-28T00:40:00;14.0;;;14.0;;
22673;SDS011;11504;43.334;21.918;2022-10-28T00:44:48;14.0;;;14.0;;
22673;SDS011;11504;43.334;21.918;2022-10-28T00:49:33;15.0;;;14.0;;
22673;SDS011;11504;43.334;21.918;2022-10-28T00:54:10;15.0;;;14.0;;
22673;SDS011;11504;43.334;21.918;2022-10-28T00:58:55;14.0;;;14.0;;
22673;SDS011;11504;43.334;21.918;2022-10-28T01:03:53;14.0;;;14.0;;
22673;SDS011;11504;43.334;21.918;2022-10-28T01:08:35;13.0;;;13.0;;
22673;SDS011;11504;43.334;21.918;2022-10-28T01:13:20;13.0;;;13.0;;
22673;SDS011;11504;43.334;21.918;2022-10-28T01:19:10;14.0;;;14.0;;
22673;SDS011;11504;43.334;21.918;2022-10-28T01:27:33;14.0;;;14.0;;
22673;SDS011;11504;43.334;21.918;2022-10-28T01:33:37;15.0;;;14.0;;
22673;SDS011;11504;43.334;21.918;2022-10-28T01:38:49;14.0;;;14.0;;
22673;SDS011;11504;43.334;21.918;2022-10-28T01:44:09;14.0;;;14.0;;
22673;SDS011;11504;43.334;21.918;2022-10-28T01:49:18;14.0;;;13.0;;
22673;SDS011;11504;43.334;21.918;2022-10-28T01:54:18;14.0;;;13.0;;
22673;SDS011;11504;43.334;21.918;2022-10-28T01:59:12;14.0;;;12.0;;
22673;SDS011;11504;43.334;21.918;2022-10-28T02:04:02;14.0;;;12.0;;
22673;SDS011;11504;43.334;21.918;2022-10-28T02:08:50;13.0;;;12.0;;
22673;SDS011;11504;43.334;21.918;2022-10-28T02:14:15;13.0;;;12.0;;
22673;SDS011;11504;43.334;21.918;2022-10-28T02:20:01;14.0;;;12.0;;
22673;SDS011;11504;43.334;21.918;2022-10-28T02:25:20;14.0;;;12.0;;
22673;SDS011;11504;43.334;21.918;2022-10-28T02:30:19;14.0;;;13.0;;
22673;SDS011;11504;43.334;21.918;2022-10-28T02:35:19;14.0;;;13.0;;
22673;SDS011;11504;43.334;21.918;2022-10-28T02:40:20;12.0;;;12.0;;
22673;SDS011;11504;43.334;21.918;2022-10-28T02:45:11;12.0;;;12.0;;
22673;SDS011;11504;43.334;21.918;2022-10-28T02:50:07;10.0;;;10.0;;
22673;SDS011;11504;43.334;21.918;2022-10-28T02:55:05;10.0;;;10.0;;
22673;SDS011;11504;43.334;21.918;2022-10-28T02:59:50;10.0;;;10.0;;
22673;SDS011;11504;43.334;21.918;2022-10-28T03:04:35;10.0;;;10.0;;
22673;SDS011;11504;43.334;21.918;2022-10-28T03:09:12;11.0;;;11.0;;
22673;SDS011;11504;43.334;21.918;2022-10-28T03:13:48;11.0;;;11.0;;
22673;SDS011;11504;43.334;21.918;2022-10-28T03:18:25;12.0;;;12.0;;
22673;SDS011;11504;43.334;21.918;2022-10-28T03:23:02;12.0;;;12.0;;
22673;SDS011;11504;43.334;21.918;2022-10-28T03:27:38;12.0;;;12.0;;
22673;SDS011;11504;43.334;21.918;2022-10-28T03:32:15;13.0;;;12.0;;
22673;SDS011;11504;43.334;21.918;2022-10-28T03:36:52;13.0;;;12.0;;
22673;SDS011;11504;43.334;21.918;2022-10-28T03:41:28;12.0;;;12.0;;
22673;SDS011;11504;43.334;21.918;2022-10-28T03:46:05;12.0;;;12.0;;
22673;SDS011;11504;43.334;21.918;2022-10-28T03:50:42;12.0;;;11.0;;
22673;SDS011;11504;43.334;21.918;2022-10-28T03:55:19;12.0;;;11.0;;
22673;SDS011;11504;43.334;21.918;2022-10-28T03:59:56;12.0;;;11.0;;
22673;SDS011;11504;43.334;21.918;2022-10-28T04:04:34;12.0;;;11.0;;
22673;SDS011;11504;43.334;21.918;2022-10-28T04:09:11;12.0;;;11.0;;
22673;SDS011;11504;43.334;21.918;2022-10-28T04:13:47;12.0;;;11.0;;
22673;SDS011;11504;43.334;21.918;2022-10-28T04:18:24;14.0;;;12.0;;
22673;SDS011;11504;43.334;21.918;2022-10-28T04:23:01;14.0;;;12.0;;
22673;SDS011;11504;43.334;21.918;2022-10-28T04:27:38;14.0;;;12.0;;
22673;SDS011;11504;43.334;21.918;2022-10-28T04:32:14;15.0;;;14.0;;
22673;SDS011;11504;43.334;21.918;2022-10-28T04:36:51;15.0;;;14.0;;
22673;SDS011;11504;43.334;21.918;2022-10-28T04:41:28;18.0;;;18.0;;
22673;SDS011;11504;43.334;21.918;2022-10-28T04:46:04;18.0;;;18.0;;
22673;SDS011;11504;43.334;21.918;2022-10-28T04:50:41;22.0;;;21.0;;
22673;SDS011;11504;43.334;21.918;2022-10-28T04:55:19;22.0;;;21.0;;
22673;SDS011;11504;43.334;21.918;2022-10-28T04:59:56;21.0;;;20.0;;
22673;SDS011;11504;43.334;21.918;2022-10-28T05:04:33;21.0;;;20.0;;
22673;SDS011;11504;43.334;21.918;2022-10-28T05:09:10;20.0;;;19.0;;
22673;SDS011;11504;43.334;21.918;2022-10-28T05:13:48;20.0;;;19.0;;
22673;SDS011;11504;43.334;21.918;2022-10-28T05:18:24;20.0;;;20.0;;
22673;SDS011;11504;43.334;21.918;2022-10-28T05:23:01;20.0;;;20.0;;
22673;SDS011;11504;43.334;21.918;2022-10-28T05:27:38;20.0;;;20.0;;
22673;SDS011;11504;43.334;21.918;2022-10-28T05:32:14;21.0;;;20.0;;
22673;SDS011;11504;43.334;21.918;2022-10-28T05:36:51;21.0;;;20.0;;
22673;SDS011;11504;43.334;21.918;2022-10-28T05:41:27;20.0;;;18.0;;
22673;SDS011;11504;43.334;21.918;2022-10-28T05:46:05;20.0;;;18.0;;
22673;SDS011;11504;43.334;21.918;2022-10-28T05:50:41;18.0;;;17.0;;
22673;SDS011;11504;43.334;21.918;2022-10-28T05:55:19;18.0;;;17.0;;
22673;SDS011;11504;43.334;21.918;2022-10-28T06:00:04;17.0;;;16.0;;
22673;SDS011;11504;43.334;21.918;2022-10-28T06:04:46;17.0;;;16.0;;
22673;SDS011;11504;43.334;21.918;2022-10-28T06:09:23;16.0;;;15.0;;
22673;SDS011;11504;43.334;21.918;2022-10-28T06:14:03;16.0;;;15.0;;
22673;SDS011;11504;43.334;21.918;2022-10-28T06:18:39;18.0;;;17.0;;
22673;SDS011;11504;43.334;21.918;2022-10-28T06:23:16;18.0;;;17.0;;
22673;SDS011;11504;43.334;21.918;2022-10-28T06:27:52;18.0;;;17.0;;
22673;SDS011;11504;43.334;21.918;2022-10-28T06:32:34;20.0;;;19.0;;
22673;SDS011;11504;43.334;21.918;2022-10-28T06:37:11;20.0;;;19.0;;
22673;SDS011;11504;43.334;21.918;2022-10-28T06:41:49;20.0;;;20.0;;
22673;SDS011;11504;43.334;21.918;2022-10-28T06:46:26;20.0;;;20.0;;
22673;SDS011;11504;43.334;21.918;2022-10-28T06:51:04;21.0;;;20.0;;
22673;SDS011;11504;43.334;21.918;2022-10-28T06:55:41;21.0;;;20.0;;
22673;SDS011;11504;43.334;21.918;2022-10-28T07:00:18;21.0;;;20.0;;
22673;SDS011;11504;43.334;21.918;2022-10-28T07:04:56;21.0;;;20.0;;
22673;SDS011;11504;43.334;21.918;2022-10-28T07:09:32;21.0;;;20.0;;
22673;SDS011;11504;43.334;21.918;2022-10-28T07:14:09;21.0;;;20.0;;
22673;SDS011;11504;43.334;21.918;2022-10-28T07:18:46;20.0;;;19.0;;
22673;SDS011;11504;43.334;21.918;2022-10-28T07:23:22;20.0;;;19.0;;
22673;SDS011;11504;43.334;21.918;2022-10-28T07:27:59;20.0;;;19.0;;
22673;SDS011;11504;43.334;21.918;2022-10-28T07:32:36;19.0;;;18.0;;
22673;SDS011;11504;43.334;21.918;2022-10-28T07:37:13;19.0;;;18.0;;
22673;SDS011;11504;43.334;21.918;2022-10-28T07:41:50;18.0;;;17.0;;
22673;SDS011;11504;43.334;21.918;2022-10-28T07:46:26;18.0;;;17.0;;
22673;SDS011;11504;43.334;21.918;2022-10-28T07:51:04;16.0;;;16.0;;
22673;SDS011;11504;43.334;21.918;2022-10-28T07:55:54;16.0;;;16.0;;
22673;SDS011;11504;43.334;21.918;2022-10-28T08:00:35;16.0;;;16.0;;
22673;SDS011;11504;43.334;21.918;2022-10-28T08:05:12;16.0;;;16.0;;
22673;SDS011;11504;43.334;21.918;2022-10-28T08:09:51;16.0;;;15.0;;
22673;SDS011;11504;43.334;21.918;2022-10-28T08:14:28;16.0;;;15.0;;
22673;SDS011;11504;43.334;21.918;2022-10-28T08:19:04;14.0;;;14.0;;
22673;SDS011;11504;43.334;21.918;2022-10-28T08:23:42;14.0;;;14.0;;
22673;SDS011;11504;43.334;21.918;2022-10-28T08:28:19;14.0;;;14.0;;
22673;SDS011;11504;43.334;21.918;2022-10-28T08:32:57;12.0;;;12.0;;
22673;SDS011;11504;43.334;21.918;2022-10-28T08:37:33;12.0;;;12.0;;
22673;SDS011;11504;43.334;21.918;2022-10-28T08:42:25;14.0;;;14.0;;
22673;SDS011;11504;43.334;21.918;2022-10-28T08:47:37;14.0;;;14.0;;
22673;SDS011;11504;43.334;21.918;2022-10-28T08:52:53;17.0;;;16.0;;
22673;SDS011;11504;43.334;21.918;2022-10-28T08:57:51;17.0;;;16.0;;
22673;SDS011;11504;43.334;21.918;2022-10-28T09:03:00;18.0;;;18.0;;
22673;SDS011;11504;43.334;21.918;2022-10-28T09:08:01;18.0;;;18.0;;
22673;SDS011;11504;43.334;21.918;2022-10-28T09:12:52;20.0;;;19.0;;
22673;SDS011;11504;43.334;21.918;2022-10-28T09:18:18;20.0;;;19.0;;
22673;SDS011;11504;43.334;21.918;2022-10-28T09:23:34;20.0;;;19.0;;
22673;SDS011;11504;43.334;21.918;2022-10-28T09:28:51;20.0;;;19.0;;
22673;SDS011;11504;43.334;21.918;2022-10-28T09:34:34;20.0;;;19.0;;
22673;SDS011;11504;43.334;21.918;2022-10-28T09:39:42;18.0;;;17.0;;
22673;SDS011;11504;43.334;21.918;2022-10-28T09:44:40;18.0;;;17.0;;
22673;SDS011;11504;43.334;21.918;2022-10-28T09:49:39;16.0;;;15.0;;
22673;SDS011;11504;43.334;21.918;2022-10-28T09:54:31;16.0;;;15.0;;
22673;SDS011;11504;43.334;21.918;2022-10-28T09:59:20;14.0;;;14.0;;
22673;SDS011;11504;43.334;21.918;2022-10-28T10:03:56;14.0;;;14.0;;
22673;SDS011;11504;43.334;21.918;2022-10-28T10:08:34;13.0;;;12.0;;
22673;SDS011;11504;43.334;21.918;2022-10-28T10:13:13;13.0;;;12.0;;
22673;SDS011;11504;43.334;21.918;2022-10-28T10:18:05;13.0;;;12.0;;
22673;SDS011;11504;43.334;21.918;2022-10-28T10:23:20;14.0;;;13.0;;
22673;SDS011;11504;43.334;21.918;2022-10-28T10:28:14;14.0;;;13.0;;
22673;SDS011;11504;43.334;21.918;2022-10-28T10:32:52;15.0;;;14.0;;
22673;SDS011;11504;43.334;21.918;2022-10-28T10:37:32;15.0;;;14.0;;
22673;SDS011;11504;43.334;21.918;2022-10-28T10:42:21;16.0;;;14.0;;
22673;SDS011;11504;43.334;21.918;2022-10-28T10:47:18;16.0;;;14.0;;
22673;SDS011;11504;43.334;21.918;2022-10-28T10:51:57;16.0;;;15.0;;
22673;SDS011;11504;43.334;21.918;2022-10-28T10:56:52;16.0;;;15.0;;
22673;SDS011;11504;43.334;21.918;2022-10-28T11:01:42;16.0;;;14.0;;
22673;SDS011;11504;43.334;21.918;2022-10-28T11:06:23;16.0;;;14.0;;
22673;SDS011;11504;43.334;21.918;2022-10-28T11:11:13;15.0;;;14.0;;
22673;SDS011;11504;43.334;21.918;2022-10-28T11:16:17;15.0;;;14.0;;
22673;SDS011;11504;43.334;21.918;2022-10-28T11:21:02;17.0;;;16.0;;
22673;SDS011;11504;43.334;21.918;2022-10-28T11:26:26;17.0;;;16.0;;
22673;SDS011;11504;43.334;21.918;2022-10-28T11:31:37;19.0;;;18.0;;
22673;SDS011;11504;43.334;21.918;2022-10-28T11:37:02;19.0;;;18.0;;
22673;SDS011;11504;43.334;21.918;2022-10-28T11:42:40;19.0;;;18.0;;
22673;SDS011;11504;43.334;21.918;2022-10-28T11:48:18;19.0;;;18.0;;
22673;SDS011;11504;43.334;21.918;2022-10-28T11:56:14;19.0;;;18.0;;
22673;SDS011;11504;43.334;21.918;2022-10-28T12:01:34;18.0;;;18.0;;
22673;SDS011;11504;43.334;21.918;2022-10-28T12:07:45;18.0;;;18.0;;
22673;SDS011;11504;43.334;21.918;2022-10-28T12:13:33;18.0;;;17.0;;
22673;SDS011;11504;43.334;21.918;2022-10-28T12:18:56;16.0;;;15.0;;
22673;SDS011;11504;43.334;21.918;2022-10-28T12:24:03;16.0;;;15.0;;
22673;SDS011;11504;43.334;21.918;2022-10-28T12:29:02;14.0;;;13.0;;
22673;SDS011;11504;43.334;21.918;2022-10-28T12:34:03;14.0;;;13.0;;
22673;SDS011;11504;43.334;21.918;2022-10-28T12:39:02;13.0;;;12.0;;
22673;SDS011;11504;43.334;21.918;2022-10-28T12:44:02;13.0;;;12.0;;
22673;SDS011;11504;43.334;21.918;2022-10-28T12:49:00;12.0;;;12.0;;
22673;SDS011;11504;43.334;21.918;2022-10-28T12:54:03;12.0;;;12.0;;
22673;SDS011;11504;43.334;21.918;2022-10-28T12:59:16;10.0;;;10.0;;
22673;SDS011;11504;43.334;21.918;2022-10-28T13:04:17;10.0;;;10.0;;
22673;SDS011;11504;43.334;21.918;2022-10-28T13:09:12;9.0;;;9.0;;
22673;SDS011;11504;43.334;21.918;2022-10-28T13:14:55;9.0;;;9.0;;
22673;SDS011;11504;43.334;21.918;2022-10-28T13:21:04;10.0;;;9.0;;
22673;SDS011;11504;43.334;21.918;2022-10-28T13:26:31;10.0;;;9.0;;
22673;SDS011;11504;43.334;21.918;2022-10-28T13:31:17;10.0;;;9.0;;
22673;SDS011;11504;43.334;21.918;2022-10-28T13:36:08;10.0;;;9.0;;
22673;SDS011;11504;43.334;21.918;2022-10-28T13:41:24;10.0;;;10.0;;
22673;SDS011;11504;43.334;21.918;2022-10-28T13:47:29;10.0;;;10.0;;
22673;SDS011;11504;43.334;21.918;2022-10-28T13:52:18;10.0;;;10.0;;
22673;SDS011;11504;43.334;21.918;2022-10-28T13:57:02;10.0;;;10.0;;
22673;SDS011;11504;43.334;21.918;2022-10-28T14:02:01;10.0;;;10.0;;
22673;SDS011;11504;43.334;21.918;2022-10-28T14:07:18;10.0;;;10.0;;
22673;SDS011;11504;43.334;21.918;2022-10-28T14:12:15;10.0;;;10.0;;
22673;SDS011;11504;43.334;21.918;2022-10-28T14:17:18;10.0;;;10.0;;
22673;SDS011;11504;43.334;21.918;2022-10-28T14:22:26;11.0;;;10.0;;
22673;SDS011;11504;43.334;21.918;2022-10-28T14:27:24;11.0;;;10.0;;
22673;SDS011;11504;43.334;21.918;2022-10-28T14:33:20;12.0;;;11.0;;
22673;SDS011;11504;43.334;21.918;2022-10-28T14:38:33;12.0;;;11.0;;
22673;SDS011;11504;43.334;21.918;2022-10-28T14:44:40;14.0;;;12.0;;
22673;SDS011;11504;43.334;21.918;2022-10-28T14:50:16;15.0;;;14.0;;
22673;SDS011;11504;43.334;21.918;2022-10-28T14:55:21;15.0;;;14.0;;
22673;SDS011;11504;43.334;21.918;2022-10-28T15:00:17;14.0;;;14.0;;
22673;SDS011;11504;43.334;21.918;2022-10-28T15:05:03;14.0;;;14.0;;
22673;SDS011;11504;43.334;21.918;2022-10-28T15:09:57;14.0;;;13.0;;
22673;SDS011;11504;43.334;21.918;2022-10-28T15:14:36;14.0;;;13.0;;
22673;SDS011;11504;43.334;21.918;2022-10-28T15:19:23;16.0;;;15.0;;
22673;SDS011;11504;43.334;21.918;2022-10-28T15:24:11;16.0;;;15.0;;
22673;SDS011;11504;43.334;21.918;2022-10-28T15:28:49;18.0;;;17.0;;
22673;SDS011;11504;43.334;21.918;2022-10-28T15:33:29;18.0;;;17.0;;
22673;SDS011;11504;43.334;21.918;2022-10-28T15:38:35;18.0;;;17.0;;
22673;SDS011;11504;43.334;21.918;2022-10-28T15:43:20;20.0;;;19.0;;
22673;SDS011;11504;43.334;21.918;2022-10-28T15:48:11;20.0;;;19.0;;
22673;SDS011;11504;43.334;21.918;2022-10-28T15:53:30;23.0;;;21.0;;
22673;SDS011;11504;43.334;21.918;2022-10-28T15:58:30;23.0;;;21.0;;
22673;SDS011;11504;43.334;21.918;2022-10-28T16:03:24;29.0;;;27.0;;
22673;SDS011;11504;43.334;21.918;2022-10-28T16:08:22;29.0;;;27.0;;
22673;SDS011;11504;43.334;21.918;2022-10-28T16:13:16;35.0;;;33.0;;
22673;SDS011;11504;43.334;21.918;2022-10-28T16:18:09;35.0;;;33.0;;
22673;SDS011;11504;43.334;21.918;2022-10-28T16:22:46;28.0;;;26.0;;
22673;SDS011;11504;43.334;21.918;2022-10-28T16:27:24;28.0;;;26.0;;
22673;SDS011;11504;43.334;21.918;2022-10-28T16:32:09;21.0;;;20.0;;
22673;SDS011;11504;43.334;21.918;2022-10-28T16:36:52;21.0;;;20.0;;
22673;SDS011;11504;43.334;21.918;2022-10-28T16:41:30;29.0;;;28.0;;
22673;SDS011;11504;43.334;21.918;2022-10-28T16:46:08;29.0;;;28.0;;
22673;SDS011;11504;43.334;21.918;2022-10-28T16:50:50;37.0;;;35.0;;
22673;SDS011;11504;43.334;21.918;2022-10-28T16:55:35;37.0;;;35.0;;
22673;SDS011;11504;43.334;21.918;2022-10-28T17:00:12;34.0;;;32.0;;
22673;SDS011;11504;43.334;21.918;2022-10-28T17:04:51;34.0;;;32.0;;
22673;SDS011;11504;43.334;21.918;2022-10-28T17:09:29;31.0;;;30.0;;
22673;SDS011;11504;43.334;21.918;2022-10-28T17:14:06;31.0;;;30.0;;
22673;SDS011;11504;43.334;21.918;2022-10-28T17:18:44;31.0;;;30.0;;
22673;SDS011;11504;43.334;21.918;2022-10-28T17:23:24;38.0;;;37.0;;
22673;SDS011;11504;43.334;21.918;2022-10-28T17:28:01;38.0;;;37.0;;
22673;SDS011;11504;43.334;21.918;2022-10-28T17:32:39;46.0;;;44.0;;
22673;SDS011;11504;43.334;21.918;2022-10-28T17:37:17;46.0;;;44.0;;
22673;SDS011;11504;43.334;21.918;2022-10-28T17:41:54;53.0;;;51.0;;
22673;SDS011;11504;43.334;21.918;2022-10-28T17:46:31;53.0;;;51.0;;
22673;SDS011;11504;43.334;21.918;2022-10-28T17:51:08;60.0;;;58.0;;
22673;SDS011;11504;43.334;21.918;2022-10-28T17:55:54;60.0;;;58.0;;
22673;SDS011;11504;43.334;21.918;2022-10-28T18:00:31;60.0;;;58.0;;
22673;SDS011;11504;43.334;21.918;2022-10-28T18:05:08;60.0;;;58.0;;
22673;SDS011;11504;43.334;21.918;2022-10-28T18:09:45;61.0;;;58.0;;
22673;SDS011;11504;43.334;21.918;2022-10-28T18:14:21;61.0;;;58.0;;
22673;SDS011;11504;43.334;21.918;2022-10-28T18:19:02;64.0;;;60.0;;
22673;SDS011;11504;43.334;21.918;2022-10-28T18:23:49;64.0;;;60.0;;
22673;SDS011;11504;43.334;21.918;2022-10-28T18:28:30;64.0;;;60.0;;
22673;SDS011;11504;43.334;21.918;2022-10-28T18:33:12;66.0;;;63.0;;
22673;SDS011;11504;43.334;21.918;2022-10-28T18:37:48;66.0;;;63.0;;
22673;SDS011;11504;43.334;21.918;2022-10-28T18:42:25;56.0;;;53.0;;
22673;SDS011;11504;43.334;21.918;2022-10-28T18:47:01;56.0;;;53.0;;
22673;SDS011;11504;43.334;21.918;2022-10-28T18:51:38;45.0;;;43.0;;
22673;SDS011;11504;43.334;21.918;2022-10-28T18:56:16;45.0;;;43.0;;
22673;SDS011;11504;43.334;21.918;2022-10-28T19:01:05;44.0;;;42.0;;
22673;SDS011;11504;43.334;21.918;2022-10-28T19:05:50;44.0;;;42.0;;
22673;SDS011;11504;43.334;21.918;2022-10-28T19:10:27;42.0;;;40.0;;
22673;SDS011;11504;43.334;21.918;2022-10-28T19:15:04;42.0;;;40.0;;
22673;SDS011;11504;43.334;21.918;2022-10-28T19:19:43;48.0;;;46.0;;
22673;SDS011;11504;43.334;21.918;2022-10-28T19:24:19;48.0;;;46.0;;
22673;SDS011;11504;43.334;21.918;2022-10-28T19:28:56;48.0;;;46.0;;
22673;SDS011;11504;43.334;21.918;2022-10-28T19:33:33;53.0;;;51.0;;
22673;SDS011;11504;43.334;21.918;2022-10-28T19:38:12;53.0;;;51.0;;
22673;SDS011;11504;43.334;21.918;2022-10-28T19:42:51;46.0;;;44.0;;
22673;SDS011;11504;43.334;21.918;2022-10-28T19:47:29;46.0;;;44.0;;
22673;SDS011;11504;43.334;21.918;2022-10-28T19:52:06;38.0;;;36.0;;
22673;SDS011;11504;43.334;21.918;2022-10-28T19:56:43;38.0;;;36.0;;
22673;SDS011;11504;43.334;21.918;2022-10-28T20:01:23;38.0;;;36.0;;
22673;SDS011;11504;43.334;21.918;2022-10-28T20:06:13;38.0;;;36.0;;
22673;SDS011;11504;43.334;21.918;2022-10-28T20:10:59;37.0;;;36.0;;
22673;SDS011;11504;43.334;21.918;2022-10-28T20:15:47;37.0;;;36.0;;
22673;SDS011;11504;43.334;21.918;2022-10-28T20:20:23;41.0;;;40.0;;
22673;SDS011;11504;43.334;21.918;2022-10-28T20:25:00;41.0;;;40.0;;
22673;SDS011;11504;43.334;21.918;2022-10-28T20:29:37;45.0;;;43.0;;
22673;SDS011;11504;43.334;21.918;2022-10-28T20:34:13;45.0;;;43.0;;
22673;SDS011;11504;43.334;21.918;2022-10-28T20:38:53;45.0;;;43.0;;
22673;SDS011;11504;43.334;21.918;2022-10-28T20:43:35;39.0;;;38.0;;
22673;SDS011;11504;43.334;21.918;2022-10-28T20:48:12;39.0;;;38.0;;
22673;SDS011;11504;43.334;21.918;2022-10-28T20:52:49;33.0;;;32.0;;
22673;SDS011;11504;43.334;21.918;2022-10-28T20:57:25;33.0;;;32.0;;
22673;SDS011;11504;43.334;21.918;2022-10-28T21:02:02;30.0;;;29.0;;
22673;SDS011;11504;43.334;21.918;2022-10-28T21:06:38;30.0;;;29.0;;
22673;SDS011;11504;43.334;21.918;2022-10-28T21:11:16;27.0;;;26.0;;
22673;SDS011;11504;43.334;21.918;2022-10-28T21:15:53;27.0;;;26.0;;
22673;SDS011;11504;43.334;21.918;2022-10-28T21:20:30;26.0;;;24.0;;
22673;SDS011;11504;43.334;21.918;2022-10-28T21:25:13;26.0;;;24.0;;
22673;SDS011;11504;43.334;21.918;2022-10-28T21:29:50;24.0;;;23.0;;
22673;SDS011;11504;43.334;21.918;2022-10-28T21:34:27;24.0;;;23.0;;
22673;SDS011;11504;43.334;21.918;2022-10-28T21:39:03;24.0;;;23.0;;
22673;SDS011;11504;43.334;21.918;2022-10-28T21:43:42;24.0;;;22.0;;
22673;SDS011;11504;43.334;21.918;2022-10-28T21:48:28;24.0;;;22.0;;
22673;SDS011;11504;43.334;21.918;2022-10-28T21:53:09;23.0;;;22.0;;
22673;SDS011;11504;43.334;21.918;2022-10-28T21:57:46;23.0;;;22.0;;
22673;SDS011;11504;43.334;21.918;2022-10-28T22:02:22;24.0;;;22.0;;
22673;SDS011;11504;43.334;21.918;2022-10-28T22:06:59;24.0;;;22.0;;
22673;SDS011;11504;43.334;21.918;2022-10-28T22:11:36;25.0;;;23.0;;
22673;SDS011;11504;43.334;21.918;2022-10-28T22:16:15;25.0;;;23.0;;
22673;SDS011;11504;43.334;21.918;2022-10-28T22:20:53;24.0;;;23.0;;
22673;SDS011;11504;43.334;21.918;2022-10-28T22:25:31;24.0;;;23.0;;
22673;SDS011;11504;43.334;21.918;2022-10-28T22:30:09;24.0;;;23.0;;
22673;SDS011;11504;43.334;21.918;2022-10-28T22:34:49;24.0;;;23.0;;
22673;SDS011;11504;43.334;21.918;2022-10-28T22:39:26;23.0;;;22.0;;
22673;SDS011;11504;43.334;21.918;2022-10-28T22:44:03;23.0;;;22.0;;
22673;SDS011;11504;43.334;21.918;2022-10-28T22:48:40;23.0;;;22.0;;
22673;SDS011;11504;43.334;21.918;2022-10-28T22:53:19;22.0;;;21.0;;
22673;SDS011;11504;43.334;21.918;2022-10-28T22:57:58;22.0;;;21.0;;
22673;SDS011;11504;43.334;21.918;2022-10-28T23:02:34;22.0;;;21.0;;
22673;SDS011;11504;43.334;21.918;2022-10-28T23:07:11;22.0;;;21.0;;
22673;SDS011;11504;43.334;21.918;2022-10-28T23:11:48;22.0;;;21.0;;
22673;SDS011;11504;43.334;21.918;2022-10-28T23:16:25;22.0;;;21.0;;
22673;SDS011;11504;43.334;21.918;2022-10-28T23:21:03;21.0;;;20.0;;
22673;SDS011;11504;43.334;21.918;2022-10-28T23:25:51;21.0;;;20.0;;
22673;SDS011;11504;43.334;21.918;2022-10-28T23:30:29;20.0;;;19.0;;
22673;SDS011;11504;43.334;21.918;2022-10-28T23:35:07;20.0;;;19.0;;
22673;SDS011;11504;43.334;21.918;2022-10-28T23:39:44;21.0;;;20.0;;
22673;SDS011;11504;43.334;21.918;2022-10-28T23:44:21;21.0;;;20.0;;
22673;SDS011;11504;43.334;21.918;2022-10-28T23:48:57;21.0;;;20.0;;
22673;SDS011;11504;43.334;21.918;2022-10-28T23:53:34;22.0;;;21.0;;
22673;SDS011;11504;43.334;21.918;2022-10-28T23:58:11;22.0;;;21.0;;
